York Harbor, Maine
Current Conditions -  °F | °C
As of 9:58 AM on Saturday 25 Oct 2014 (Local Time) from KPSM Reporting Station
Broken Clouds Broken Clouds  
Wind Chill: 12°   Ceiling: 25000
Heat Index: 12°   Visibility: 10mi
Dew Point:   Wind: 6mph
Humidity: 62%   Direction: 260°W
Pressure: 29.69"   Gusts: NA
Location:  43.14°N, 70.65°W
Report Text: KPSM 251358Z 26005KT 10SM FEW090 BKN250 12/05 A2969 RMK AO2A SLP058 T01220050
Loading
Personal Weather Stations






























Interactive Weather Map
Tropical Storm Tracking
New forecast layout! Learn more

10-Day Weather Forecast

Advertisements
Track Severe Weather on mobile